createdAt,value
2022-11-18T00:01:30.160Z,40.95
2022-11-18T00:03:58.720Z,40.38
2022-11-18T00:06:30.156Z,43.58
2022-11-18T00:09:00.123Z,38.83
2022-11-18T00:11:46.471Z,41.00
2022-11-18T00:14:23.020Z,41.80
2022-11-18T00:16:53.795Z,45.45
2022-11-18T00:19:23.239Z,40.03
2022-11-18T00:21:52.756Z,38.30
2022-11-18T00:24:23.639Z,40.22
2022-11-18T00:26:52.248Z,39.03
2022-11-18T00:29:21.513Z,38.65
2022-11-18T00:31:50.416Z,37.70
2022-11-18T00:34:19.525Z,38.42
2022-11-18T00:36:49.114Z,39.00
2022-11-18T00:39:20.628Z,41.70
2022-11-18T00:42:07.144Z,38.70
2022-11-18T00:44:35.826Z,35.28
2022-11-18T00:47:04.135Z,42.55
2022-11-18T00:49:32.314Z,37.70
2022-11-18T00:52:01.137Z,35.88
2022-11-18T00:54:30.746Z,39.60
2022-11-18T00:56:59.025Z,34.42
2022-11-18T00:59:27.393Z,36.08
2022-11-18T01:01:55.629Z,35.10
2022-11-18T01:04:23.792Z,33.88
2022-11-18T01:06:52.028Z,34.70
2022-11-18T01:09:20.275Z,40.42
2022-11-18T01:12:07.121Z,35.38
2022-11-18T01:14:35.200Z,34.60
2022-11-18T01:17:03.377Z,34.47
2022-11-18T01:19:31.589Z,34.55
2022-11-18T01:22:02.939Z,33.65
2022-11-18T01:24:31.438Z,33.90
2022-11-18T01:27:01.949Z,32.65
2022-11-18T01:29:30.563Z,33.72
2022-11-18T01:32:23.568Z,31.70
2022-11-18T01:34:51.611Z,32.17
2022-11-18T01:37:19.902Z,31.73
2022-11-18T01:39:48.090Z,32.50
2022-11-18T01:42:18.918Z,31.98
2022-11-18T01:45:21.088Z,31.58
2022-11-18T01:47:56.860Z,33.45
2022-11-18T01:50:25.605Z,33.47
2022-11-18T01:52:58.631Z,31.30
2022-11-18T01:55:29.616Z,33.30
2022-11-18T01:58:06.942Z,32.30
2022-11-18T02:00:35.473Z,33.42
2022-11-18T02:03:05.819Z,32.05
2022-11-18T02:05:37.096Z,32.15
2022-11-18T02:08:07.672Z,32.65
2022-11-18T02:10:35.800Z,32.58
2022-11-18T02:13:05.619Z,32.10
2022-11-18T02:15:47.526Z,33.15
2022-11-18T02:18:25.457Z,33.15
2022-11-18T02:21:01.002Z,32.50
2022-11-18T02:23:58.392Z,32.00
2022-11-18T02:26:47.891Z,33.25
2022-11-18T02:29:20.491Z,32.47
2022-11-18T02:31:54.707Z,34.08
2022-11-18T02:34:33.424Z,34.03
2022-11-18T02:37:06.898Z,32.30
2022-11-18T02:39:39.124Z,33.50
2022-11-18T02:42:10.721Z,32.65
2022-11-18T02:44:45.036Z,32.20
2022-11-18T02:47:16.746Z,31.88
2022-11-18T02:49:49.831Z,32.33
2022-11-18T02:52:20.244Z,33.05
2022-11-18T02:54:50.789Z,34.05
2022-11-18T02:57:21.903Z,33.45
2022-11-18T02:59:51.442Z,34.03
2022-11-18T03:02:21.298Z,31.88
2022-11-18T03:04:52.689Z,34.05
2022-11-18T03:07:27.082Z,35.85
2022-11-18T03:09:56.311Z,34.45
2022-11-18T03:12:33.060Z,33.70
2022-11-18T03:15:12.677Z,36.58
2022-11-18T03:17:48.678Z,36.13
2022-11-18T03:20:22.661Z,36.67
2022-11-18T03:22:55.356Z,37.83
2022-11-18T03:27:58.649Z,38.50
2022-11-18T03:30:31.027Z,38.85
2022-11-18T03:33:03.862Z,39.53
2022-11-18T03:35:36.231Z,41.35
2022-11-18T03:38:11.079Z,41.00
2022-11-18T03:40:42.678Z,39.67
2022-11-18T03:43:14.267Z,43.75
2022-11-18T03:45:47.999Z,42.85
2022-11-18T03:48:18.692Z,40.80
2022-11-18T03:53:19.695Z,41.88
2022-11-18T03:55:52.282Z,44.17
2022-11-18T03:58:25.853Z,44.42
2022-11-18T04:01:00.515Z,41.20
2022-11-18T04:03:28.938Z,42.03
2022-11-18T04:06:04.530Z,42.03
2022-11-18T04:08:40.204Z,42.80
2022-11-18T04:11:35.058Z,40.50
2022-11-18T04:14:05.137Z,41.35
2022-11-18T04:16:40.633Z,42.95
2022-11-18T04:19:08.764Z,42.70
2022-11-18T04:21:36.967Z,44.58
2022-11-18T04:24:06.707Z,43.65
2022-11-18T04:26:34.820Z,45.15
2022-11-18T04:29:02.962Z,44.53
2022-11-18T04:31:31.094Z,43.50
2022-11-18T04:34:00.642Z,45.97
2022-11-18T04:36:30.872Z,44.88
2022-11-18T04:38:59.003Z,45.20
2022-11-18T04:41:47.344Z,48.60
2022-11-18T04:44:15.701Z,46.92
2022-11-18T04:46:45.416Z,46.67
2022-11-18T04:49:16.613Z,47.30
2022-11-18T04:51:46.152Z,47.38
2022-11-18T04:54:15.154Z,49.50
2022-11-18T04:56:48.684Z,50.53
2022-11-18T04:59:23.073Z,49.55
2022-11-18T05:01:51.375Z,50.15
2022-11-18T05:04:22.875Z,48.80
2022-11-18T05:06:54.659Z,49.97
2022-11-18T05:09:26.085Z,49.08
2022-11-18T05:12:15.849Z,50.15
2022-11-18T05:14:49.310Z,52.33
2022-11-18T05:17:18.765Z,50.53
2022-11-18T05:19:48.227Z,52.30
2022-11-18T05:22:16.556Z,51.50
2022-11-18T05:24:44.699Z,50.58
2022-11-18T05:27:13.174Z,55.40
2022-11-18T05:29:41.319Z,50.97
2022-11-18T05:32:11.838Z,52.15
2022-11-18T05:34:42.902Z,49.58
2022-11-18T05:37:12.759Z,52.58
2022-11-18T05:39:41.089Z,50.05
2022-11-18T05:42:32.178Z,47.70
2022-11-18T05:45:00.356Z,47.15
2022-11-18T05:47:48.596Z,48.15
2022-11-18T05:50:21.312Z,46.35
2022-11-18T05:52:51.163Z,47.85
2022-11-18T05:55:20.701Z,45.50
2022-11-18T05:57:49.560Z,44.58
2022-11-18T06:00:18.935Z,41.17
2022-11-18T06:02:50.206Z,43.80
2022-11-18T06:05:19.862Z,41.88
2022-11-18T06:07:48.059Z,41.33
2022-11-18T06:10:21.564Z,38.25
2022-11-18T06:12:51.983Z,36.78
2022-11-18T06:15:22.443Z,38.60
2022-11-18T06:17:56.012Z,34.60
2022-11-18T06:20:24.260Z,34.22
2022-11-18T06:22:55.925Z,33.65
2022-11-18T06:25:26.059Z,32.67
2022-11-18T06:27:57.343Z,33.53
2022-11-18T06:30:25.552Z,34.20
2022-11-18T06:32:53.720Z,32.85
2022-11-18T06:35:21.880Z,32.05
2022-11-18T06:37:50.092Z,32.25
2022-11-18T06:40:18.754Z,32.00
2022-11-18T06:43:05.803Z,32.67
2022-11-18T06:45:33.949Z,32.53
2022-11-18T06:48:02.203Z,32.28
2022-11-18T06:50:30.707Z,32.55
2022-11-18T06:53:01.671Z,31.58
2022-11-18T06:55:29.719Z,30.67
2022-11-18T06:57:59.342Z,31.02
2022-11-18T07:00:27.449Z,30.67
2022-11-18T07:02:55.650Z,32.05
2022-11-18T07:05:23.821Z,30.85
2022-11-18T07:07:52.156Z,32.40
2022-11-18T07:10:21.556Z,33.20
2022-11-18T07:12:49.668Z,30.00
2022-11-18T07:15:19.177Z,29.73
2022-11-18T07:17:47.492Z,32.47
2022-11-18T07:20:15.900Z,31.25
2022-11-18T07:22:44.172Z,31.92
2022-11-18T07:25:12.265Z,30.60
2022-11-18T07:27:40.430Z,33.05
2022-11-18T07:30:09.615Z,34.70
2022-11-18T07:32:41.419Z,36.08
2022-11-18T07:35:10.623Z,32.00
2022-11-18T07:37:41.166Z,31.30
2022-11-18T07:40:10.955Z,30.67
2022-11-18T07:42:43.600Z,31.67
2022-11-18T07:45:24.604Z,30.73
2022-11-18T07:47:54.134Z,31.83
2022-11-18T07:50:22.439Z,30.90
2022-11-18T07:52:50.548Z,32.42
2022-11-18T07:55:18.712Z,32.00
2022-11-18T07:57:46.915Z,32.17
2022-11-18T08:00:15.957Z,31.77
2022-11-18T08:02:44.465Z,33.03
2022-11-18T08:05:17.894Z,32.63
2022-11-18T08:07:46.606Z,31.92
2022-11-18T08:10:14.898Z,31.30
2022-11-18T08:12:42.998Z,32.03
2022-11-18T08:15:13.205Z,32.17
2022-11-18T08:17:41.409Z,31.70
2022-11-18T08:20:10.457Z,32.67
2022-11-18T08:22:40.011Z,31.17
2022-11-18T08:25:09.393Z,31.10
2022-11-18T08:27:37.609Z,30.50
2022-11-18T08:30:06.629Z,28.98
2022-11-18T08:32:34.849Z,29.88
2022-11-18T08:35:07.989Z,29.88
2022-11-18T08:37:40.508Z,30.17
2022-11-18T08:40:09.547Z,31.48
2022-11-18T08:42:38.511Z,29.77
2022-11-18T08:45:08.866Z,31.35
2022-11-18T08:47:37.354Z,32.55
2022-11-18T08:50:06.721Z,33.00
2022-11-18T08:52:35.270Z,30.98
2022-11-18T08:55:05.829Z,30.85
2022-11-18T08:57:34.094Z,31.10
2022-11-18T09:00:02.278Z,31.17
2022-11-18T09:02:30.350Z,29.83
2022-11-18T09:05:00.678Z,28.65
2022-11-18T09:07:28.891Z,29.58
2022-11-18T09:09:57.448Z,30.00
2022-11-18T09:12:27.074Z,29.15
2022-11-18T09:17:43.617Z,34.67
2022-11-18T09:20:12.212Z,38.13
2022-11-18T09:22:40.387Z,34.50
2022-11-18T09:25:09.669Z,35.83
2022-11-18T09:27:39.363Z,38.60
2022-11-18T09:30:08.661Z,42.60
2022-11-18T09:32:36.834Z,28.40
2022-11-18T09:35:05.809Z,31.52
2022-11-18T09:37:34.620Z,27.58
2022-11-18T09:40:06.137Z,24.45
2022-11-18T09:42:51.532Z,25.10
2022-11-18T09:45:25.804Z,25.65
2022-11-18T09:47:58.070Z,25.27
2022-11-18T09:50:48.364Z,24.02
2022-11-18T09:53:20.989Z,28.75
2022-11-18T09:55:50.987Z,29.00
2022-11-18T09:58:32.393Z,23.63
2022-11-18T10:01:01.107Z,45.78
2022-11-18T10:03:31.643Z,33.22
2022-11-18T10:06:07.103Z,25.45
2022-11-18T10:08:41.221Z,33.30
2022-11-18T10:11:15.613Z,37.97
2022-11-18T10:13:56.194Z,54.03
2022-11-18T10:16:34.827Z,33.88
2022-11-18T10:19:12.361Z,54.00
2022-11-18T10:21:52.501Z,28.38
2022-11-18T10:24:23.774Z,34.00
2022-11-18T10:26:57.156Z,26.92
2022-11-18T10:29:27.146Z,19.23
2022-11-18T10:32:04.277Z,21.45
2022-11-18T10:34:33.796Z,17.50
2022-11-18T10:37:03.636Z,21.33
2022-11-18T10:39:31.845Z,36.28
2022-11-18T10:42:04.100Z,23.27
2022-11-18T10:44:36.657Z,40.05
2022-11-18T10:47:29.238Z,14.75
2022-11-18T10:50:00.072Z,24.00
2022-11-18T10:52:29.761Z,38.65
2022-11-18T10:55:22.029Z,51.55
2022-11-18T10:57:53.430Z,14.53
2022-11-18T11:00:42.441Z,28.20
2022-11-18T11:03:36.344Z,22.80
2022-11-18T11:06:38.693Z,31.63
2022-11-18T11:09:09.699Z,16.95
2022-11-18T11:11:40.046Z,29.80
2022-11-18T11:14:18.889Z,31.20
2022-11-18T11:17:09.934Z,19.73
2022-11-18T11:19:52.242Z,15.68
2022-11-18T11:22:20.793Z,28.88
2022-11-18T11:24:49.047Z,23.73
2022-11-18T11:30:21.931Z,26.77
2022-11-18T11:33:19.811Z,31.55
2022-11-18T11:36:08.158Z,30.38
2022-11-18T11:38:50.066Z,16.13
2022-11-18T11:41:23.973Z,21.15
2022-11-18T11:44:13.347Z,21.58
2022-11-18T11:47:09.157Z,27.52
2022-11-18T11:49:55.020Z,22.15
2022-11-18T11:52:34.125Z,21.95
2022-11-18T11:55:18.046Z,19.33
2022-11-18T11:57:59.750Z,18.13
2022-11-18T12:00:28.833Z,19.10
2022-11-18T12:03:12.687Z,20.20
2022-11-18T12:05:43.177Z,19.35
2022-11-18T12:08:17.329Z,31.90
2022-11-18T12:10:50.032Z,16.67
2022-11-18T12:16:12.399Z,14.53
2022-11-18T12:18:44.745Z,15.57
2022-11-18T12:21:46.701Z,14.38
2022-11-18T12:24:35.697Z,15.25
2022-11-18T12:27:06.858Z,12.25
2022-11-18T12:29:43.026Z,12.15
2022-11-18T12:32:30.970Z,12.88
2022-11-18T12:35:02.362Z,12.75
2022-11-18T12:38:01.643Z,12.73
2022-11-18T12:40:37.711Z,13.55
2022-11-18T12:43:24.155Z,13.23
2022-11-18T12:45:55.379Z,14.90
2022-11-18T12:48:40.304Z,15.18
2022-11-18T12:51:46.122Z,14.68
2022-11-18T12:54:27.509Z,14.25
2022-11-18T12:57:00.536Z,12.23
2022-11-18T12:59:33.758Z,15.52
2022-11-18T13:02:21.836Z,13.00
2022-11-18T13:05:07.800Z,13.40
2022-11-18T13:08:01.676Z,11.32
2022-11-18T13:10:36.120Z,15.82
2022-11-18T13:13:06.988Z,13.07
2022-11-18T13:15:59.960Z,13.15
2022-11-18T13:18:28.363Z,11.45
2022-11-18T13:20:58.289Z,15.23
2022-11-18T13:23:46.994Z,15.20
2022-11-18T13:26:29.287Z,12.10
2022-11-18T13:29:16.877Z,22.98
2022-11-18T13:31:55.360Z,12.77
2022-11-18T13:34:25.986Z,12.30
2022-11-18T13:36:55.661Z,41.95
2022-11-18T13:39:26.262Z,26.98
2022-11-18T13:42:01.767Z,19.15
2022-11-18T13:44:35.572Z,15.10
2022-11-18T13:47:10.669Z,12.25
2022-11-18T13:49:50.614Z,11.30
2022-11-18T13:52:24.160Z,74.72
2022-11-18T13:54:54.571Z,11.60
2022-11-18T13:59:56.358Z,12.25
2022-11-18T14:02:24.876Z,12.20
2022-11-18T14:04:57.432Z,12.25
2022-11-18T14:07:34.086Z,13.93
2022-11-18T14:10:04.405Z,13.52
2022-11-18T14:12:34.088Z,17.15
2022-11-18T14:15:22.229Z,14.63
2022-11-18T14:17:56.109Z,16.42
2022-11-18T14:20:25.398Z,32.78
2022-11-18T14:22:56.953Z,11.88
2022-11-18T14:25:29.359Z,12.85
2022-11-18T14:28:11.325Z,20.25
2022-11-18T14:30:41.807Z,24.83
2022-11-18T14:33:15.044Z,20.63
2022-11-18T14:35:45.512Z,16.63
2022-11-18T14:38:36.546Z,13.95
2022-11-18T14:41:07.143Z,25.45
2022-11-18T14:46:13.540Z,25.75
2022-11-18T14:48:41.838Z,13.70
2022-11-18T14:51:13.848Z,23.52
2022-11-18T14:53:42.326Z,19.40
2022-11-18T14:56:16.349Z,13.23
2022-11-18T14:58:44.507Z,22.48
2022-11-18T15:01:14.485Z,10.43
2022-11-18T15:03:42.745Z,9.02
2022-11-18T15:06:15.201Z,10.02
2022-11-18T15:08:43.988Z,8.98
2022-11-18T15:11:12.667Z,9.60
2022-11-18T15:13:41.020Z,9.05
2022-11-18T15:16:16.924Z,7.65
2022-11-18T15:18:47.749Z,7.45
2022-11-18T15:21:16.349Z,8.02
2022-11-18T15:23:44.793Z,8.52
2022-11-18T15:26:19.620Z,7.45
2022-11-18T15:28:48.320Z,7.47
2022-11-18T15:31:18.834Z,6.50
2022-11-18T15:33:48.465Z,8.73
2022-11-18T15:36:18.752Z,6.85
2022-11-18T15:38:47.557Z,8.23
2022-11-18T15:41:18.540Z,7.75
2022-11-18T15:43:46.992Z,7.30
2022-11-18T15:46:17.289Z,7.50
2022-11-18T15:48:45.436Z,6.85
2022-11-18T15:51:13.846Z,7.00
2022-11-18T15:53:42.060Z,7.65
2022-11-18T15:56:24.498Z,7.75
2022-11-18T15:58:56.797Z,8.65
2022-11-18T16:01:28.225Z,8.65
2022-11-18T16:03:59.120Z,8.82
2022-11-18T16:06:27.833Z,9.05
2022-11-18T16:09:00.031Z,7.90
2022-11-18T16:11:46.283Z,7.13
2022-11-18T16:14:16.855Z,7.88
2022-11-18T16:16:47.828Z,13.02
2022-11-18T16:19:17.408Z,13.18
2022-11-18T16:21:49.332Z,14.07
2022-11-18T16:24:19.753Z,15.37
2022-11-18T16:26:48.249Z,10.68
2022-11-18T16:29:17.838Z,11.10
2022-11-18T16:31:52.289Z,11.38
2022-11-18T16:34:22.197Z,13.82
2022-11-18T16:36:52.013Z,14.57
2022-11-18T16:39:24.911Z,8.30
2022-11-18T16:41:53.972Z,14.60
2022-11-18T16:44:22.275Z,27.58
2022-11-18T16:46:54.257Z,19.02
2022-11-18T16:49:24.378Z,24.52
2022-11-18T16:51:55.112Z,20.63
2022-11-18T16:54:24.333Z,29.63
2022-11-18T16:56:54.639Z,15.15
2022-11-18T16:59:26.742Z,14.48
2022-11-18T17:01:58.013Z,19.80
2022-11-18T17:04:28.641Z,23.92
2022-11-18T17:06:59.738Z,22.90
2022-11-18T17:09:28.168Z,16.35
2022-11-18T17:11:58.447Z,28.98
2022-11-18T17:14:27.121Z,26.95
2022-11-18T17:16:59.083Z,39.03
2022-11-18T17:19:27.203Z,16.90
2022-11-18T17:21:55.738Z,26.15
2022-11-18T17:24:25.404Z,16.27
2022-11-18T17:26:54.490Z,12.05
2022-11-18T17:29:22.664Z,27.13
2022-11-18T17:31:51.003Z,28.65
2022-11-18T17:34:23.113Z,56.67
2022-11-18T17:36:51.658Z,15.45
2022-11-18T17:39:20.779Z,16.73
2022-11-18T17:42:06.642Z,15.85
2022-11-18T17:44:34.765Z,23.65
2022-11-18T17:47:03.507Z,33.47
2022-11-18T17:49:33.152Z,27.17
2022-11-18T17:52:01.280Z,31.42
2022-11-18T17:54:29.428Z,20.77
2022-11-18T17:56:57.657Z,15.80
2022-11-18T17:59:25.799Z,26.45
2022-11-18T18:01:58.975Z,18.48
2022-11-18T18:04:28.063Z,25.17
2022-11-18T18:06:57.657Z,19.42
2022-11-18T18:09:30.497Z,16.42
2022-11-18T18:11:59.974Z,14.80
2022-11-18T18:14:27.233Z,16.02
2022-11-18T18:16:55.605Z,15.18
2022-11-18T18:19:24.625Z,12.55
2022-11-18T18:21:53.416Z,11.75
2022-11-18T18:24:24.025Z,13.55
2022-11-18T18:26:52.133Z,13.10
2022-11-18T18:29:20.319Z,11.18
2022-11-18T18:31:48.530Z,23.67
2022-11-18T18:34:17.290Z,15.13
2022-11-18T18:36:47.796Z,17.70
2022-11-18T18:39:16.142Z,17.65
2022-11-18T18:41:45.756Z,19.80
2022-11-18T18:44:18.607Z,28.35
2022-11-18T18:46:45.965Z,16.77
2022-11-18T18:49:15.340Z,27.10
2022-11-18T18:51:45.221Z,19.95
2022-11-18T18:54:15.477Z,14.63
2022-11-18T18:56:45.869Z,25.88
2022-11-18T18:59:15.083Z,27.27
2022-11-18T19:01:43.389Z,24.38
2022-11-18T19:04:14.085Z,24.90
2022-11-18T19:07:01.287Z,31.67
2022-11-18T19:09:29.624Z,21.75
2022-11-18T19:12:16.585Z,15.73
2022-11-18T19:14:44.883Z,25.75
2022-11-18T19:17:13.469Z,18.20
2022-11-18T19:20:00.525Z,19.35
2022-11-18T19:22:31.213Z,23.90
2022-11-18T19:25:02.422Z,20.38
2022-11-18T19:27:31.980Z,48.88
2022-11-18T19:30:00.670Z,30.13
2022-11-18T19:32:28.893Z,30.52
2022-11-18T19:34:57.127Z,50.78
2022-11-18T19:37:25.253Z,18.38
2022-11-18T19:39:56.088Z,24.98
2022-11-18T19:42:24.351Z,31.40
2022-11-18T19:44:54.210Z,21.35
2022-11-18T19:47:22.392Z,15.77
2022-11-18T19:49:50.503Z,19.38
2022-11-18T19:52:18.846Z,15.77
2022-11-18T19:54:47.066Z,25.95
2022-11-18T19:57:15.693Z,17.15
2022-11-18T19:59:46.395Z,19.65
2022-11-18T20:02:16.088Z,22.30
2022-11-18T20:05:04.583Z,23.58
2022-11-18T20:07:32.713Z,28.38
2022-11-18T20:10:01.897Z,18.95
2022-11-18T20:12:35.265Z,19.35
2022-11-18T20:15:05.247Z,23.17
2022-11-18T20:17:34.745Z,20.65
2022-11-18T20:20:03.072Z,21.40
2022-11-18T20:22:31.430Z,25.40
2022-11-18T20:25:01.336Z,44.08
2022-11-18T20:27:29.618Z,23.95
2022-11-18T20:29:57.783Z,22.65
2022-11-18T20:32:25.866Z,18.13
2022-11-18T20:34:55.466Z,20.70
2022-11-18T20:37:27.860Z,20.63
2022-11-18T20:39:56.593Z,21.27
2022-11-18T20:42:44.125Z,26.65
2022-11-18T20:45:12.623Z,19.63
2022-11-18T20:47:40.806Z,16.95
2022-11-18T20:50:10.660Z,20.33
2022-11-18T20:52:38.769Z,18.08
2022-11-18T20:55:07.465Z,20.30
2022-11-18T20:57:36.976Z,19.90
2022-11-18T21:00:06.404Z,20.27
2022-11-18T21:02:34.628Z,19.13
2022-11-18T21:05:02.864Z,17.77
2022-11-18T21:07:33.761Z,17.63
2022-11-18T21:10:02.479Z,27.08
2022-11-18T21:12:30.810Z,18.25
2022-11-18T21:14:57.921Z,18.70
2022-11-18T21:17:26.182Z,44.20
2022-11-18T21:19:54.374Z,19.60
2022-11-18T21:22:21.606Z,18.23
2022-11-18T21:24:53.657Z,25.63
2022-11-18T21:29:50.704Z,26.05
2022-11-18T21:32:18.928Z,19.52
2022-11-18T21:34:47.119Z,19.58
2022-11-18T21:37:15.382Z,21.48
2022-11-18T21:39:46.364Z,14.98
2022-11-18T21:42:16.967Z,16.67
2022-11-18T21:44:45.273Z,14.68
2022-11-18T21:47:13.487Z,13.13
2022-11-18T21:49:41.627Z,14.35
2022-11-18T21:52:10.066Z,12.13
2022-11-18T21:54:38.351Z,13.55
2022-11-18T21:57:06.486Z,13.27
2022-11-18T21:59:36.043Z,12.13
2022-11-18T22:02:04.195Z,13.13
2022-11-18T22:04:49.715Z,11.07
2022-11-18T22:07:17.889Z,19.73
2022-11-18T22:09:46.124Z,25.35
2022-11-18T22:12:14.342Z,43.13
2022-11-18T22:14:43.994Z,31.95
2022-11-18T22:17:12.131Z,21.83
2022-11-18T22:19:40.180Z,18.48
2022-11-18T22:22:08.349Z,20.38
2022-11-18T22:24:36.468Z,24.00
2022-11-18T22:27:09.921Z,25.35
2022-11-18T22:29:39.478Z,44.15
2022-11-18T22:32:11.457Z,20.95
2022-11-18T22:34:39.627Z,25.10
2022-11-18T22:37:07.907Z,21.05
2022-11-18T22:39:36.036Z,15.50
2022-11-18T22:42:21.465Z,17.02
2022-11-18T22:44:51.908Z,17.00
2022-11-18T22:47:21.434Z,17.08
2022-11-18T22:49:53.499Z,16.33
2022-11-18T22:52:24.316Z,17.92
2022-11-18T22:54:52.472Z,15.38
2022-11-18T22:57:20.742Z,17.40
2022-11-18T22:59:48.847Z,26.05
2022-11-18T23:02:16.996Z,20.70
2022-11-18T23:04:46.363Z,15.70
2022-11-18T23:07:14.544Z,16.83
2022-11-18T23:09:42.665Z,16.50
2022-11-18T23:12:28.122Z,15.70
2022-11-18T23:14:56.422Z,15.48
2022-11-18T23:17:24.568Z,16.35
2022-11-18T23:19:54.104Z,16.42
2022-11-18T23:22:22.236Z,18.63
2022-11-18T23:24:50.365Z,17.67
2022-11-18T23:27:18.489Z,17.20
2022-11-18T23:29:46.588Z,17.23
2022-11-18T23:32:14.740Z,18.95
2022-11-18T23:34:42.879Z,18.48
2022-11-18T23:37:13.583Z,17.45
2022-11-18T23:39:41.730Z,18.42
2022-11-18T23:42:09.891Z,18.58
2022-11-18T23:44:47.181Z,19.83
2022-11-18T23:47:17.623Z,17.40
2022-11-18T23:49:45.761Z,19.15
2022-11-18T23:52:15.864Z,23.42
2022-11-18T23:54:43.981Z,18.17
2022-11-18T23:57:12.236Z,18.90
2022-11-18T23:59:40.390Z,18.67
